Taylor, Arkansas
Current Conditions -  °F | °C
As of 7:35 AM on Friday 19 Dec 2014 (Local Time) from KMNE Reporting Station
Overcast Overcast  
Wind Chill: 48°   Ceiling: 900
Heat Index: 48°   Visibility: 10mi
Dew Point: 45°   Wind: 3mph
Humidity: 87%   Direction: 20°NNE
Pressure: 30.17"   Gusts: NA
Location:  33.1°N, 93.46°W
Report Text: KMNE 191335Z AUTO 02003KT 10SM OVC009 09/07 A3017 RMK AO2
Loading
Personal Weather Stations






























Interactive Weather Map New forecast layout! Learn more

10-Day Weather Forecast

Advertisements
Track Severe Weather on mobile